Tompkins Corners, New York
Current Conditions -  °F | °C
As of 9:45 AM on Monday 24 Nov 2014 (Local Time) from KSWF Reporting Station
Overcast Overcast  
Wind Chill: 64°   Ceiling: 3000
Heat Index: 64°   Visibility: 10mi
Dew Point: 61°   Wind: 12mph
Humidity: 88%   Direction: 220°SW
Pressure: 29.66"   Gusts: 23mph
Location:  41.3969°N, 73.8382°W
Report Text: KSWF 241445Z 22010G20KT 10SM BKN030 OVC040 18/16 A2966
Loading
Personal Weather Stations






























Interactive Weather Map New forecast layout! Learn more

10-Day Weather Forecast

Advertisements
Track Severe Weather on mobile